Time;durP1;ratioP1;P1;durP2;ratioP2;P2;SDS_P1;SDS_P2;PMS_P1;PMS_P2;Temp;Humidity;BMP_temperature;BMP_pressure;BME280_temperature;BME280_humidity;BME280_pressure;Samples;Min_cycle;Max_cycle;Signal;HPM_P1;HPM_P2
2022/01/21 00:00:41;;;;;;;19.27;4.20;;;;;;;0.09;100.00;103333.81;5095718;28;20042;-74
2022/01/21 00:03:07;;;;;;;20.75;4.38;;;;;;;0.06;100.00;103343.88;5095567;28;20036;-74
2022/01/21 00:05:32;;;;;;;20.02;4.57;;;;;;;0.01;100.00;103324.63;5095841;28;20112;-75
2022/01/21 00:07:57;;;;;;;22.90;5.43;;;;;;;-0.03;100.00;103335.53;5095835;28;20423;-74
2022/01/21 00:10:22;;;;;;;24.45;4.82;;;;;;;-0.02;100.00;103350.19;5095562;28;20027;-75
2022/01/21 00:12:52;;;;;;;19.08;4.20;;;;;;;-0.06;100.00;103343.94;5095679;28;20032;-74
2022/01/21 00:15:17;;;;;;;22.70;5.05;;;;;;;-0.05;100.00;103344.81;5095159;28;20047;-73
2022/01/21 00:17:43;;;;;;;18.70;5.03;;;;;;;-0.07;100.00;103343.81;5095261;28;20340;-74
2022/01/21 00:31:04;;;;;;;18.48;4.97;;;;;;;0.08;100.00;103347.47;5095564;28;20358;-74
2022/01/21 00:33:29;;;;;;;20.98;4.30;;;;;;;0.04;100.00;103332.56;5095298;28;20031;-74
2022/01/21 00:35:55;;;;;;;20.63;4.75;;;;;;;0.05;100.00;103330.91;5095584;28;20039;-74
2022/01/21 00:38:22;;;;;;;18.52;5.03;;;;;;;0.00;100.00;103328.03;5095307;28;20031;-74
2022/01/21 00:40:48;;;;;;;22.05;5.15;;;;;;;0.04;100.00;103321.38;5095108;28;20443;-74
2022/01/21 00:43:29;;;;;;;21.38;4.85;;;;;;;-0.06;100.00;103309.59;5095380;28;20072;-74
2022/01/21 00:45:55;;;;;;;17.15;4.90;;;;;;;-0.08;100.00;103317.19;5095201;28;20047;-74
2022/01/21 00:48:20;;;;;;;24.15;4.95;;;;;;;-0.03;100.00;103333.84;5095221;28;20039;-74
2022/01/21 00:50:47;;;;;;;19.73;4.15;;;;;;;-0.07;100.00;103333.53;5094991;28;20028;-74
2022/01/21 00:53:13;;;;;;;20.70;4.35;;;;;;;-0.07;100.00;103337.00;5095368;28;20028;-73
2022/01/21 00:55:38;;;;;;;16.02;4.10;;;;;;;-0.08;100.00;103337.78;5094515;28;20450;-73
2022/01/21 00:58:03;;;;;;;16.85;3.70;;;;;;;-0.09;100.00;103338.56;5094541;28;20044;-73
2022/01/21 01:00:29;;;;;;;21.15;3.85;;;;;;;-0.15;100.00;103337.22;5094748;28;20032;-73
2022/01/21 01:02:55;;;;;;;21.88;4.25;;;;;;;-0.17;100.00;103351.66;5094771;28;20130;-73
2022/01/21 01:05:20;;;;;;;17.20;4.25;;;;;;;-0.29;100.00;103333.69;5094779;28;20044;-74
2022/01/21 01:07:45;;;;;;;14.80;4.30;;;;;;;-0.18;100.00;103355.94;5095073;28;20109;-73
2022/01/21 01:10:17;;;;;;;16.15;4.18;;;;;;;-0.21;100.00;103348.00;5095007;28;20114;-72
2022/01/21 01:12:58;;;;;;;14.75;3.90;;;;;;;-0.29;100.00;103346.56;5095201;28;20093;-73
2022/01/21 01:20:52;;;;;;;16.73;3.95;;;;;;;-0.33;100.00;103346.22;5094825;28;20046;-74
2022/01/21 01:23:26;;;;;;;16.00;3.63;;;;;;;-0.37;100.00;103340.00;5094732;28;20032;-73
2022/01/21 01:28:35;;;;;;;16.90;4.03;;;;;;;-0.44;100.00;103335.19;5094506;28;20443;-73
2022/01/21 01:31:01;;;;;;;14.65;3.65;;;;;;;-0.43;100.00;103326.69;5094699;28;20032;-72
2022/01/21 01:33:35;;;;;;;12.15;3.15;;;;;;;-0.47;100.00;103333.28;5094489;28;20028;-74
2022/01/21 01:36:01;;;;;;;18.20;3.40;;;;;;;-0.44;100.00;103330.94;5094611;28;20462;-73
2022/01/21 01:38:44;;;;;;;15.48;3.50;;;;;;;-0.48;100.00;103331.50;5094446;28;20064;-73
2022/01/21 01:41:13;;;;;;;18.98;3.50;;;;;;;-0.51;100.00;103331.28;5094325;28;20359;-73
2022/01/21 01:49:28;;;;;;;19.33;3.55;;;;;;;-0.55;100.00;103326.72;5094895;28;20122;-74
2022/01/21 01:51:54;;;;;;;10.75;3.40;;;;;;;-0.53;100.00;103331.97;5094978;28;20035;-73
2022/01/21 01:54:19;;;;;;;16.42;3.15;;;;;;;-0.52;100.00;103326.06;5094530;28;20533;-75
2022/01/21 01:56:49;;;;;;;21.63;3.83;;;;;;;-0.54;100.00;103330.19;5094508;28;20035;-73
2022/01/21 01:59:14;;;;;;;13.32;3.38;;;;;;;-0.54;100.00;103323.38;5094494;28;20039;-74
2022/01/21 02:01:40;;;;;;;15.65;3.70;;;;;;;-0.55;100.00;103321.59;5094359;28;20028;-74
2022/01/21 02:04:05;;;;;;;14.80;3.53;;;;;;;-0.57;100.00;103315.44;5094277;28;20043;-73
2022/01/21 02:06:31;;;;;;;14.93;3.28;;;;;;;-0.49;100.00;103319.41;5094379;28;20043;-74
2022/01/21 02:08:56;;;;;;;15.60;3.28;;;;;;;-0.52;100.00;103314.06;5097503;28;20431;-73
2022/01/21 02:11:22;;;;;;;20.05;3.63;;;;;;;-0.52;100.00;103320.91;5098204;28;20036;-75
2022/01/21 02:13:57;;;;;;;15.32;3.47;;;;;;;-0.52;100.00;103323.47;5098395;28;20028;-73
2022/01/21 02:21:39;;;;;;;15.07;3.25;;;;;;;-0.54;100.00;103335.34;5098199;28;20156;-74
2022/01/21 02:24:09;;;;;;;11.20;3.30;;;;;;;-0.57;100.00;103333.44;5097537;28;20024;-74
2022/01/21 02:26:35;;;;;;;13.63;2.88;;;;;;;-0.64;100.00;103314.88;5097642;28;20030;-74
2022/01/21 02:29:02;;;;;;;18.05;3.38;;;;;;;-0.63;100.00;103325.25;5097511;28;20028;-74
2022/01/21 02:31:28;;;;;;;17.67;3.17;;;;;;;-0.63;100.00;103314.97;5097707;28;20094;-75
2022/01/21 02:33:54;;;;;;;14.50;2.83;;;;;;;-0.65;100.00;103323.38;5097524;28;20024;-74
2022/01/21 02:36:19;;;;;;;11.38;3.03;;;;;;;-0.74;100.00;103303.03;5097579;28;20035;-75
2022/01/21 02:38:45;;;;;;;16.73;3.35;;;;;;;-0.66;100.00;103309.63;5097367;28;20116;-74
2022/01/21 02:41:10;;;;;;;12.95;3.25;;;;;;;-0.68;100.00;103312.84;5097273;28;20043;-75
2022/01/21 02:43:35;;;;;;;16.02;2.92;;;;;;;-0.75;100.00;103314.13;5096714;28;20437;-74
2022/01/21 02:46:05;;;;;;;10.40;2.50;;;;;;;-0.73;100.00;103317.69;5097244;28;20027;-74
2022/01/21 02:48:35;;;;;;;13.15;3.03;;;;;;;-0.76;100.00;103318.34;5097291;28;20089;-75
2022/01/21 02:51:00;;;;;;;13.98;3.00;;;;;;;-0.75;100.00;103324.41;5097436;28;20035;-74
2022/01/21 02:53:38;;;;;;;12.65;3.08;;;;;;;-0.83;100.00;103312.66;5097123;28;20453;-74
2022/01/21 02:56:03;;;;;;;10.82;3.05;;;;;;;-0.80;100.00;103326.63;5096978;28;20040;-76
2022/01/21 02:58:29;;;;;;;15.52;3.22;;;;;;;-0.77;100.00;103336.25;5097084;28;20436;-74
2022/01/21 03:00:54;;;;;;;12.68;3.17;;;;;;;-0.84;100.00;103324.59;5097187;28;20435;-75
2022/01/21 03:03:19;;;;;;;14.95;2.78;;;;;;;-0.82;100.00;103330.75;5097179;28;20161;-74
2022/01/21 03:05:45;;;;;;;10.50;2.85;;;;;;;-0.82;100.00;103332.44;5096957;28;20127;-75
2022/01/21 03:08:10;;;;;;;11.43;2.83;;;;;;;-0.85;100.00;103332.19;5096694;28;20043;-73
2022/01/21 03:10:35;;;;;;;13.85;3.10;;;;;;;-0.88;100.00;103329.44;5097086;28;20032;-75
2022/01/21 03:13:00;;;;;;;16.90;3.60;;;;;;;-0.87;100.00;103328.66;5097166;28;20036;-74
2022/01/21 03:15:26;;;;;;;11.50;3.10;;;;;;;-0.87;100.00;103332.13;5097308;28;20096;-73
2022/01/21 03:17:51;;;;;;;17.55;2.83;;;;;;;-0.99;100.00;103318.34;5096792;28;20079;-74
2022/01/21 03:20:16;;;;;;;13.60;3.30;;;;;;;-0.89;100.00;103330.22;5096112;28;20431;-74
2022/01/21 03:22:42;;;;;;;13.23;3.17;;;;;;;-0.96;100.00;103336.56;5096425;28;20027;-74
2022/01/21 03:25:08;;;;;;;13.10;3.08;;;;;;;-0.90;100.00;103341.28;5096359;28;20051;-75
2022/01/21 03:27:34;;;;;;;10.63;3.25;;;;;;;-0.93;100.00;103339.38;5096679;28;20458;-73
2022/01/21 03:30:02;;;;;;;11.95;3.20;;;;;;;-0.88;100.00;103350.00;5096548;28;20028;-74
2022/01/21 03:32:28;;;;;;;13.35;3.40;;;;;;;-0.95;100.00;103345.19;5096546;28;20024;-74
2022/01/21 03:34:53;;;;;;;16.42;3.20;;;;;;;-0.97;100.00;103347.63;5096593;28;20024;-75
2022/01/21 03:37:18;;;;;;;16.70;3.55;;;;;;;-0.91;100.00;103360.06;5096292;28;20462;-75
2022/01/21 03:39:44;;;;;;;16.58;3.20;;;;;;;-0.94;100.00;103344.41;5096205;28;20032;-74
2022/01/21 03:42:09;;;;;;;13.98;3.22;;;;;;;-0.94;100.00;103360.72;5096258;28;20089;-74
2022/01/21 03:44:34;;;;;;;12.70;2.67;;;;;;;-0.94;100.00;103364.97;5096260;28;20101;-74
2022/01/21 03:47:00;;;;;;;10.50;2.70;;;;;;;-1.00;100.00;103351.66;5096391;28;20114;-76
2022/01/21 03:49:28;;;;;;;15.90;3.38;;;;;;;-0.98;100.00;103350.97;5096193;28;20028;-75
2022/01/21 03:51:53;;;;;;;13.32;3.22;;;;;;;-0.98;100.00;103345.84;5096009;28;20032;-75
2022/01/21 03:54:18;;;;;;;15.00;3.10;;;;;;;-0.99;100.00;103345.72;5096152;28;20056;-73
2022/01/21 03:56:44;;;;;;;17.30;3.78;;;;;;;-0.94;100.00;103346.97;5095916;28;20040;-74
2022/01/21 03:59:09;;;;;;;12.90;3.10;;;;;;;-0.92;100.00;103364.28;5096234;28;20103;-75
2022/01/21 04:01:34;;;;;;;16.10;3.20;;;;;;;-0.95;100.00;103345.19;5095945;28;20032;-74
2022/01/21 04:04:00;;;;;;;12.93;2.72;;;;;;;-0.97;100.00;103354.44;5095927;28;20052;-75
2022/01/21 04:06:25;;;;;;;14.52;3.00;;;;;;;-0.99;100.00;103353.44;5095637;28;20077;-75
2022/01/21 04:08:50;;;;;;;13.15;3.10;;;;;;;-1.00;100.00;103349.97;5095680;28;20343;-74
2022/01/21 04:11:16;;;;;;;11.52;2.95;;;;;;;-1.04;100.00;103344.53;5095688;28;20036;-75
2022/01/21 04:13:42;;;;;;;11.25;2.63;;;;;;;-1.02;100.00;103356.66;5095535;28;20097;-73
2022/01/21 04:16:08;;;;;;;12.30;3.10;;;;;;;-1.00;100.00;103351.66;5095408;28;20135;-74
2022/01/21 04:18:33;;;;;;;21.23;3.55;;;;;;;-1.07;100.00;103343.50;5092282;28;20456;-74
2022/01/21 04:20:59;;;;;;;17.05;3.05;;;;;;;-1.10;100.00;103348.41;5095414;28;20036;-75
2022/01/21 04:23:25;;;;;;;14.10;3.22;;;;;;;-1.10;100.00;103350.09;5095813;28;20061;-73
2022/01/21 04:25:52;;;;;;;14.32;2.70;;;;;;;-1.10;100.00;103350.09;5095541;28;20048;-73
2022/01/21 04:28:17;;;;;;;12.30;2.72;;;;;;;-1.15;100.00;103342.03;5095535;28;20027;-73
2022/01/21 04:30:43;;;;;;;14.40;3.10;;;;;;;-1.12;100.00;103351.66;5095154;28;20035;-74
2022/01/21 04:33:08;;;;;;;12.13;3.10;;;;;;;-1.13;100.00;103347.28;5095726;28;20028;-74
2022/01/21 04:35:34;;;;;;;10.90;2.97;;;;;;;-1.19;100.00;103337.44;5094865;28;20110;-74
2022/01/21 04:38:03;;;;;;;11.82;2.90;;;;;;;-1.12;100.00;103349.97;5095111;28;20056;-74
2022/01/21 04:40:32;;;;;;;11.23;2.80;;;;;;;-1.18;100.00;103344.38;5095556;28;20032;-73
2022/01/21 04:48:29;;;;;;;12.55;2.72;;;;;;;-1.15;100.00;103360.00;5095142;28;20054;-73
2022/01/21 04:51:00;;;;;;;16.83;2.97;;;;;;;-1.21;100.00;103340.72;5094667;28;20067;-73
2022/01/21 04:53:27;;;;;;;11.32;2.75;;;;;;;-1.16;100.00;103350.53;5095082;28;20028;-73
2022/01/21 04:55:53;;;;;;;14.82;3.95;;;;;;;-1.12;100.00;103346.50;5094606;28;20433;-74
2022/01/21 04:58:19;;;;;;;13.27;2.70;;;;;;;-1.11;100.00;103349.19;5094920;28;20127;-74
2022/01/21 05:00:44;;;;;;;10.95;2.63;;;;;;;-1.10;100.00;103356.13;5094409;28;20063;-74
2022/01/21 05:03:11;;;;;;;11.25;2.53;;;;;;;-1.13;100.00;103331.88;5095129;28;20032;-73
2022/01/21 05:05:38;;;;;;;9.02;2.65;;;;;;;-1.12;100.00;103337.13;5094973;28;20043;-72
2022/01/21 05:08:07;;;;;;;18.45;3.15;;;;;;;-1.08;100.00;103339.16;5094662;28;20063;-73
2022/01/21 05:10:34;;;;;;;14.10;2.30;;;;;;;-1.14;100.00;103317.25;5095105;28;20024;-73
2022/01/21 05:12:59;;;;;;;13.00;2.67;;;;;;;-1.16;100.00;103311.97;5094551;28;20067;-75
2022/01/21 05:17:50;;;;;;;12.15;2.80;;;;;;;-1.09;100.00;103337.34;5100535;28;20051;-75
2022/01/21 05:20:16;;;;;;;12.50;2.63;;;;;;;-1.16;100.00;103314.56;5094908;28;20233;-74
2022/01/21 05:22:42;;;;;;;15.88;2.97;;;;;;;-1.16;100.00;103314.56;5095179;28;20043;-72
2022/01/21 05:25:09;;;;;;;13.65;2.95;;;;;;;-1.03;100.00;103334.31;5095132;28;20024;-73
2022/01/21 05:27:34;;;;;;;13.55;2.78;;;;;;;-1.01;100.00;103337.00;5094697;28;20020;-73
2022/01/21 05:29:59;;;;;;;9.45;2.33;;;;;;;-1.08;100.00;103335.69;5094665;28;20450;-74
2022/01/21 05:32:25;;;;;;;12.90;2.70;;;;;;;-1.02;100.00;103346.41;5094610;28;20039;-73
2022/01/21 05:34:50;;;;;;;19.92;3.33;;;;;;;-1.01;100.00;103344.72;5094671;28;20366;-73
2022/01/21 05:37:15;;;;;;;16.88;3.45;;;;;;;-1.07;100.00;103351.22;5094960;28;20024;-73
2022/01/21 05:39:41;;;;;;;12.82;2.85;;;;;;;-1.09;100.00;103347.63;5094816;28;20036;-73
2022/01/21 05:42:07;;;;;;;11.77;3.38;;;;;;;-1.10;100.00;103353.56;5094746;28;20032;-73
2022/01/21 05:47:00;;;;;;;16.10;3.05;;;;;;;-1.09;100.00;103357.03;5098148;28;20093;-75
2022/01/21 05:49:31;;;;;;;13.23;3.10;;;;;;;-1.10;100.00;103348.41;5098426;28;20081;-76
2022/01/21 05:52:04;;;;;;;21.00;3.75;;;;;;;-1.12;100.00;103343.94;5098023;28;20058;-73
2022/01/21 05:54:30;;;;;;;21.00;3.50;;;;;;;-1.13;100.00;103334.44;5098325;28;20028;-74
2022/01/21 05:56:56;;;;;;;15.50;4.43;;;;;;;-1.14;100.00;103342.94;5098034;28;20024;-74
2022/01/21 05:59:22;;;;;;;11.73;4.10;;;;;;;-1.08;100.00;103353.66;5098247;28;20081;-75
2022/01/21 06:01:47;;;;;;;17.27;4.15;;;;;;;-1.10;100.00;103355.22;5098251;28;20032;-75
2022/01/21 06:04:13;;;;;;;14.27;4.53;;;;;;;-1.13;100.00;103353.31;5098108;28;20365;-73
2022/01/21 06:06:38;;;;;;;16.55;4.85;;;;;;;-1.11;100.00;103359.47;5098220;28;20028;-75
2022/01/21 06:09:05;;;;;;;19.77;4.60;;;;;;;-1.12;100.00;103362.81;5098284;28;20028;-75
2022/01/21 06:11:30;;;;;;;16.20;5.38;;;;;;;-1.18;100.00;103359.78;5098062;28;20032;-74
2022/01/21 06:13:56;;;;;;;12.20;4.22;;;;;;;-1.18;100.00;103351.19;5097564;28;20101;-72
2022/01/21 06:16:21;;;;;;;14.40;4.50;;;;;;;-1.19;100.00;103370.84;5097393;28;20051;-73
2022/01/21 06:18:47;;;;;;;12.25;5.00;;;;;;;-1.19;100.00;103369.94;5097720;28;20383;-74
2022/01/21 06:21:12;;;;;;;12.65;4.82;;;;;;;-1.20;100.00;103374.19;5097869;28;20039;-73
2022/01/21 06:23:38;;;;;;;16.15;4.70;;;;;;;-1.23;100.00;103376.56;5097399;28;20401;-64
2022/01/21 06:26:03;;;;;;;15.63;5.22;;;;;;;-1.31;100.00;103357.09;5098038;28;20036;-70
2022/01/21 06:28:29;;;;;;;15.98;5.15;;;;;;;-1.29;100.00;103367.47;5098654;28;20062;-71
2022/01/21 06:30:54;;;;;;;18.40;5.72;;;;;;;-1.26;100.00;103378.00;5098365;28;20419;-71
2022/01/21 06:33:23;;;;;;;17.50;5.78;;;;;;;-1.24;100.00;103379.00;5097786;28;20047;-71
2022/01/21 06:35:51;;;;;;;16.90;6.70;;;;;;;-1.21;100.00;103384.38;5097641;28;20031;-69
2022/01/21 06:38:18;;;;;;;14.23;6.25;;;;;;;-1.21;100.00;103372.41;5097621;28;20035;-71
2022/01/21 06:40:44;;;;;;;14.43;5.95;;;;;;;-1.08;100.00;103380.25;5097289;28;20027;-71
2022/01/21 06:43:09;;;;;;;13.73;7.10;;;;;;;-1.00;100.00;103387.63;5097109;28;20035;-72
2022/01/21 06:45:35;;;;;;;27.77;9.50;;;;;;;-0.89;100.00;103404.75;5097406;28;20106;-72
2022/01/21 06:48:02;;;;;;;20.23;8.20;;;;;;;-0.82;100.00;103404.41;5097345;28;20032;-72
2022/01/21 06:50:28;;;;;;;20.63;7.97;;;;;;;-0.73;100.00;103399.97;5097417;28;20035;-71
2022/01/21 06:52:54;;;;;;;21.08;7.90;;;;;;;-0.67;100.00;103397.81;5097268;28;20378;-71
2022/01/21 06:55:19;;;;;;;17.63;8.23;;;;;;;-0.57;100.00;103410.56;5095642;28;20035;-71
2022/01/21 06:57:45;;;;;;;18.48;8.55;;;;;;;-0.50;100.00;103405.06;5096850;28;20369;-71
2022/01/21 07:00:13;;;;;;;19.10;9.10;;;;;;;-0.44;100.00;103409.78;5096886;28;20032;-70
2022/01/21 07:02:39;;;;;;;18.27;8.32;;;;;;;-0.36;100.00;103406.09;5096775;28;20028;-74
2022/01/21 07:05:05;;;;;;;14.88;8.57;;;;;;;-0.30;100.00;103409.09;5097040;28;20101;-74
2022/01/21 07:07:31;;;;;;;18.30;8.70;;;;;;;-0.26;100.00;103416.25;5096874;28;20036;-73
2022/01/21 07:09:56;;;;;;;16.95;8.23;;;;;;;-0.24;100.00;103418.94;5096755;28;20039;-73
2022/01/21 07:12:22;;;;;;;20.52;8.63;;;;;;;-0.22;100.00;103417.38;5096760;28;20036;-73
2022/01/21 07:14:47;;;;;;;19.83;9.40;;;;;;;-0.11;100.00;103434.47;5096872;28;20028;-71
2022/01/21 07:17:12;;;;;;;21.13;9.73;;;;;;;-0.06;100.00;103434.00;5096928;28;20035;-71
2022/01/21 07:19:38;;;;;;;20.20;9.43;;;;;;;-0.02;100.00;103424.84;5096705;28;20106;-72
2022/01/21 07:22:03;;;;;;;24.60;10.65;;;;;;;-0.06;100.00;103409.94;5096713;28;20047;-71
2022/01/21 07:24:29;;;;;;;19.90;10.85;;;;;;;0.00;100.00;103424.13;5096650;28;20332;-72
2022/01/21 07:26:54;;;;;;;19.98;10.05;;;;;;;0.04;100.00;103417.53;5096389;28;20385;-71
2022/01/21 07:29:19;;;;;;;17.42;10.85;;;;;;;0.12;100.00;103429.28;5096372;28;20024;-71
2022/01/21 07:31:45;;;;;;;18.80;10.90;;;;;;;0.13;100.00;103420.75;5096511;28;20023;-71
2022/01/21 07:34:10;;;;;;;20.88;10.75;;;;;;;0.19;100.00;103428.00;5096449;28;20170;-64
2022/01/21 07:36:35;;;;;;;18.98;10.80;;;;;;;0.23;100.00;103438.63;5096235;28;20078;-71
2022/01/21 07:39:04;;;;;;;21.63;11.10;;;;;;;0.20;100.00;103437.50;5096102;28;20115;-72
2022/01/21 07:41:29;;;;;;;21.58;11.60;;;;;;;0.29;100.00;103456.19;5096064;28;20043;-71
2022/01/21 07:43:55;;;;;;;23.80;12.07;;;;;;;0.27;100.00;103435.50;5096133;28;20036;-70
2022/01/21 07:46:21;;;;;;;22.65;11.68;;;;;;;0.30;100.00;103440.84;5096342;28;20074;-71
2022/01/21 07:48:46;;;;;;;25.88;11.23;;;;;;;0.43;100.00;103445.16;5095987;28;20039;-73
2022/01/21 07:51:11;;;;;;;19.88;11.48;;;;;;;0.42;100.00;103419.31;5096029;28;20042;-72
2022/01/21 07:53:37;;;;;;;23.52;10.85;;;;;;;0.48;100.00;103442.91;5095906;28;20106;-72
2022/01/21 07:56:03;;;;;;;25.08;11.30;;;;;;;0.47;100.00;103449.75;5095528;28;20031;-71
2022/01/21 07:58:29;;;;;;;22.67;11.13;;;;;;;0.49;100.00;103445.59;5095769;28;20031;-69
2022/01/21 08:00:54;;;;;;;22.38;10.65;;;;;;;0.46;100.00;103436.75;5094463;28;20032;-73
2022/01/21 08:03:20;;;;;;;26.50;10.90;;;;;;;0.48;100.00;103432.63;5095148;28;20482;-71
2022/01/21 08:05:46;;;;;;;20.67;10.75;;;;;;;0.47;100.00;103415.38;5095469;28;20093;-72
2022/01/21 08:08:12;;;;;;;17.70;10.15;;;;;;;0.42;100.00;103403.84;5094902;28;20067;-74
2022/01/21 08:10:37;;;;;;;19.70;10.73;;;;;;;0.32;100.00;103415.22;5077677;28;20090;-72
2022/01/21 08:13:03;;;;;;;24.38;10.52;;;;;;;0.30;100.00;103412.53;5095239;28;20028;-71
2022/01/21 08:15:29;;;;;;;19.30;10.68;;;;;;;0.34;100.00;103421.38;5095472;28;20051;-73
2022/01/21 08:17:54;;;;;;;18.90;10.38;;;;;;;0.34;100.00;103418.78;5095565;28;20078;-70
2022/01/21 08:20:20;;;;;;;17.00;10.95;;;;;;;0.29;100.00;103405.59;5095378;28;20060;-74
2022/01/21 08:22:45;;;;;;;23.83;11.98;;;;;;;0.41;100.00;103420.09;5094914;28;20119;-74
2022/01/21 08:25:10;;;;;;;20.23;11.50;;;;;;;0.35;100.00;103403.41;5095052;28;20039;-73
2022/01/21 08:27:36;;;;;;;24.10;11.55;;;;;;;0.43;100.00;103418.53;5094979;28;20399;-74
2022/01/21 08:30:05;;;;;;;21.30;11.80;;;;;;;0.41;100.00;103412.38;5095015;28;20035;-73
2022/01/21 08:32:30;;;;;;;19.77;11.40;;;;;;;0.31;100.00;103393.72;5095120;28;20024;-70
2022/01/21 08:34:56;;;;;;;19.73;10.82;;;;;;;0.39;100.00;103406.22;5095229;28;20038;-70
2022/01/21 08:37:21;;;;;;;18.15;10.90;;;;;;;0.38;100.00;103417.31;5094429;28;20042;-72
2022/01/21 08:39:46;;;;;;;20.00;10.55;;;;;;;0.34;100.00;103414.53;5094950;28;20109;-71
2022/01/21 08:42:12;;;;;;;19.70;10.80;;;;;;;0.35;100.00;103410.25;5094692;28;20036;-70
2022/01/21 08:44:38;;;;;;;18.42;10.35;;;;;;;0.48;100.00;103433.50;5098380;28;20039;-72
2022/01/21 08:47:04;;;;;;;20.63;10.95;;;;;;;0.51;100.00;103428.56;5103133;28;20028;-70
2022/01/21 08:49:29;;;;;;;18.40;10.27;;;;;;;0.51;100.00;103426.00;5112547;28;20027;-72
2022/01/21 08:51:57;;;;;;;20.25;10.77;;;;;;;0.55;100.00;103424.50;5115393;28;20030;-71
2022/01/21 08:54:23;;;;;;;17.42;10.48;;;;;;;0.61;100.00;103432.66;5114920;28;20039;-70
2022/01/21 08:56:50;;;;;;;16.92;11.55;;;;;;;0.61;100.00;103422.34;5114975;28;20032;-71
2022/01/21 08:59:17;;;;;;;22.75;12.20;;;;;;;0.72;100.00;103435.97;5115050;28;20351;-71
2022/01/21 09:01:43;;;;;;;19.33;12.10;;;;;;;0.72;100.00;103431.69;5115066;28;20035;-69
2022/01/21 09:04:09;;;;;;;23.20;12.23;;;;;;;0.90;100.00;103432.94;5113838;28;20079;-71
2022/01/21 09:06:34;;;;;;;19.77;11.75;;;;;;;0.98;100.00;103424.06;5098570;28;20037;-70
2022/01/21 09:09:00;;;;;;;21.25;11.00;;;;;;;1.09;100.00;103414.44;5122272;28;20060;-71
2022/01/21 09:11:26;;;;;;;18.17;10.60;;;;;;;1.23;100.00;103407.63;5135141;28;20102;-70
2022/01/21 09:13:52;;;;;;;21.30;9.82;;;;;;;1.32;100.00;103405.66;5135413;28;20055;-70
2022/01/21 09:16:18;;;;;;;15.70;10.10;;;;;;;1.32;100.00;103390.19;5134987;27;20043;-71
2022/01/21 09:18:46;;;;;;;14.80;9.25;;;;;;;1.44;100.00;103398.69;5138355;27;20034;-70
2022/01/21 09:21:13;;;;;;;15.23;9.32;;;;;;;1.47;100.00;103380.84;5139516;27;20119;-70
2022/01/21 09:23:38;;;;;;;19.55;8.98;;;;;;;1.66;100.00;103385.50;5139493;27;20037;-70
2022/01/21 09:26:03;;;;;;;18.17;8.82;;;;;;;1.80;100.00;103386.34;5139476;27;20114;-69
2022/01/21 09:28:28;;;;;;;17.88;8.57;;;;;;;1.98;100.00;103387.50;5132209;27;20454;-70
2022/01/21 09:30:54;;;;;;;15.30;7.82;;;;;;;2.20;100.00;103397.47;5106306;28;20115;-71
2022/01/21 09:33:19;;;;;;;17.98;8.65;;;;;;;2.44;100.00;103404.13;5098252;28;20028;-71
2022/01/21 09:35:45;;;;;;;19.80;7.47;;;;;;;2.60;100.00;103403.41;5098251;28;20363;-71
2022/01/21 09:38:10;;;;;;;16.77;6.80;;;;;;;2.72;100.00;103393.78;5097690;28;20032;-70
2022/01/21 09:40:42;;;;;;;16.17;6.40;;;;;;;2.90;100.00;103406.91;5099188;28;20044;-71
2022/01/21 09:43:08;;;;;;;13.45;6.25;;;;;;;3.00;100.00;103397.16;5115360;28;20332;-71
2022/01/21 09:45:35;;;;;;;15.75;6.43;;;;;;;3.15;100.00;103404.91;5118591;28;20035;-72
2022/01/21 09:48:05;;;;;;;17.45;6.30;;;;;;;3.24;100.00;103412.34;5118291;28;20414;-71
2022/01/21 09:50:30;;;;;;;10.88;5.57;;;;;;;3.28;100.00;103404.84;5118265;28;20023;-71
2022/01/21 09:52:55;;;;;;;18.30;6.13;;;;;;;3.33;100.00;103405.09;5118438;28;20446;-71
2022/01/21 09:55:22;;;;;;;14.07;4.78;;;;;;;3.49;100.00;103416.41;5118535;28;20509;-74
2022/01/21 09:57:53;;;;;;;15.93;5.18;;;;;;;3.56;100.00;103420.25;5114621;28;20055;-72
2022/01/21 10:00:20;;;;;;;17.48;5.15;;;;;;;3.64;100.00;103425.81;5112608;28;20036;-64
2022/01/21 10:02:48;;;;;;;15.60;5.60;;;;;;;3.69;100.00;103414.94;5104256;28;20058;-72
2022/01/21 10:05:14;;;;;;;13.00;5.40;;;;;;;3.86;100.00;103434.00;5100188;28;20047;-72
2022/01/21 10:07:40;;;;;;;13.50;5.00;;;;;;;4.00;100.00;103430.47;5097993;28;20032;-73
2022/01/21 10:10:08;;;;;;;13.43;4.38;;;;;;;4.09;100.00;103430.97;5097910;28;20043;-73
2022/01/21 10:12:36;;;;;;;14.32;4.85;;;;;;;4.18;100.00;103440.94;5097791;28;20080;-69
2022/01/21 10:15:03;;;;;;;10.07;4.60;;;;;;;4.25;100.00;103445.66;5097384;28;20062;-70
2022/01/21 10:17:29;;;;;;;14.20;4.50;;;;;;;4.43;100.00;103445.75;5097409;28;20032;-70
2022/01/21 10:20:11;;;;;;;11.77;4.30;;;;;;;4.45;99.89;103442.44;5096968;28;20553;-71
2022/01/21 10:22:37;;;;;;;14.50;4.38;;;;;;;4.47;98.53;103456.38;5097540;28;20039;-71
2022/01/21 10:25:05;;;;;;;12.48;4.70;;;;;;;4.55;98.49;103455.06;5097354;28;20036;-70
2022/01/21 10:27:35;;;;;;;10.38;4.13;;;;;;;4.62;98.02;103458.88;5097406;28;20132;-71
2022/01/21 10:30:17;;;;;;;11.32;4.00;;;;;;;4.58;97.75;103456.94;5096989;28;20039;-73
2022/01/21 10:32:42;;;;;;;12.95;4.25;;;;;;;4.42;97.74;103456.94;5097640;28;20043;-70
2022/01/21 10:35:25;;;;;;;13.82;4.20;;;;;;;4.38;98.80;103465.34;5097012;28;20111;-70
2022/01/21 10:37:51;;;;;;;13.35;3.75;;;;;;;4.49;98.79;103449.56;5079587;28;20321;-71
2022/01/21 10:40:19;;;;;;;18.67;4.22;;;;;;;4.72;98.55;103457.66;5097162;28;20034;-69
2022/01/21 10:42:45;;;;;;;14.65;4.45;;;;;;;4.90;97.26;103466.41;5096432;28;20089;-68
2022/01/21 10:45:12;;;;;;;14.85;4.32;;;;;;;4.97;96.21;103457.25;5096960;28;20047;-72
2022/01/21 10:47:40;;;;;;;13.02;3.55;;;;;;;5.17;96.40;103461.75;5096756;28;20099;-70
2022/01/21 10:50:15;;;;;;;15.20;4.28;;;;;;;5.43;96.38;103465.63;5096950;28;20069;-70
2022/01/21 10:52:50;;;;;;;13.75;3.95;;;;;;;5.57;94.91;103459.41;5096960;28;20085;-71
2022/01/21 10:55:29;;;;;;;16.55;4.10;;;;;;;5.55;94.92;103451.53;5096763;28;20062;-70
2022/01/21 10:58:13;;;;;;;12.20;3.85;;;;;;;5.41;95.29;103438.69;5096448;28;20569;-70
2022/01/21 11:00:57;;;;;;;14.02;3.75;;;;;;;5.57;95.10;103454.22;5096722;28;20020;-70
2022/01/21 11:03:22;;;;;;;15.27;4.07;;;;;;;5.64;93.72;103450.22;5096295;28;20035;-69
2022/01/21 11:05:49;;;;;;;17.40;3.65;;;;;;;5.65;94.45;103442.50;5096764;28;20036;-70
2022/01/21 11:08:15;;;;;;;16.08;3.42;;;;;;;5.53;95.55;103431.53;5096833;28;20032;-72
2022/01/21 11:10:47;;;;;;;16.02;4.22;;;;;;;5.39;97.76;103440.31;5096636;28;20036;-69
2022/01/21 11:13:12;;;;;;;12.48;4.30;;;;;;;5.27;98.95;103434.53;5096375;28;20040;-70
2022/01/21 11:15:39;;;;;;;19.70;4.57;;;;;;;5.21;99.35;103438.59;5096520;28;20448;-68
2022/01/21 11:18:07;;;;;;;13.88;4.15;;;;;;;5.32;100.00;103425.28;5095923;28;20293;-68
2022/01/21 11:20:39;;;;;;;18.38;4.43;;;;;;;5.46;100.00;103419.03;5096590;28;20088;-71
2022/01/21 11:23:05;;;;;;;16.27;4.50;;;;;;;5.63;99.65;103414.66;5096248;28;20028;-71
2022/01/21 11:25:41;;;;;;;16.95;4.63;;;;;;;5.71;98.88;103405.53;5095920;28;20523;-70
2022/01/21 11:28:12;;;;;;;17.70;4.68;;;;;;;5.70;98.67;103396.84;5098864;28;20038;-72
2022/01/21 11:30:37;;;;;;;15.50;4.47;;;;;;;5.66;98.02;103386.25;5096122;28;20028;-72
2022/01/21 11:33:03;;;;;;;22.05;4.45;;;;;;;5.68;98.39;103384.59;5096320;28;20403;-71
2022/01/21 11:35:29;;;;;;;16.60;4.30;;;;;;;5.68;97.79;103380.31;5095956;28;20028;-69
2022/01/21 11:37:55;;;;;;;12.70;4.18;;;;;;;5.74;97.46;103380.56;5095907;28;20038;-70
2022/01/21 11:40:22;;;;;;;13.88;4.43;;;;;;;5.78;97.31;103387.69;5095527;28;20078;-70
2022/01/21 11:42:49;;;;;;;16.23;4.30;;;;;;;5.67;97.54;103388.03;5095981;28;20050;-70
2022/01/21 11:45:30;;;;;;;17.83;4.40;;;;;;;5.55;97.25;103377.91;5095356;28;20036;-71
2022/01/21 11:50:53;;;;;;;15.05;4.57;;;;;;;5.61;97.02;103396.41;5064610;28;20105;-71
2022/01/21 11:53:43;;;;;;;15.23;4.53;;;;;;;5.65;97.80;103393.16;5095890;28;20032;-70